sensor_id;sensor_type;location;lat;lon;timestamp;P1;durP1;ratioP1;P2;durP2;ratioP2
25581;SDS011;13462;50.764;4.332;2022-08-02T00:01:49;6.35;;;3.90;;
25581;SDS011;13462;50.764;4.332;2022-08-02T00:04:15;8.43;;;4.20;;
25581;SDS011;13462;50.764;4.332;2022-08-02T00:06:41;7.00;;;4.45;;
25581;SDS011;13462;50.764;4.332;2022-08-02T00:09:07;9.43;;;4.43;;
25581;SDS011;13462;50.764;4.332;2022-08-02T00:11:32;7.97;;;4.57;;
25581;SDS011;13462;50.764;4.332;2022-08-02T00:13:58;6.72;;;4.38;;
25581;SDS011;13462;50.764;4.332;2022-08-02T00:16:24;10.82;;;4.93;;
25581;SDS011;13462;50.764;4.332;2022-08-02T00:18:50;4.45;;;4.05;;
25581;SDS011;13462;50.764;4.332;2022-08-02T00:21:15;7.03;;;4.18;;
25581;SDS011;13462;50.764;4.332;2022-08-02T00:23:41;5.95;;;4.30;;
25581;SDS011;13462;50.764;4.332;2022-08-02T00:26:07;6.65;;;4.85;;
25581;SDS011;13462;50.764;4.332;2022-08-02T00:28:32;8.68;;;4.72;;
25581;SDS011;13462;50.764;4.332;2022-08-02T00:30:58;8.20;;;4.60;;
25581;SDS011;13462;50.764;4.332;2022-08-02T00:33:24;11.13;;;4.82;;
25581;SDS011;13462;50.764;4.332;2022-08-02T00:35:50;7.40;;;4.45;;
25581;SDS011;13462;50.764;4.332;2022-08-02T00:38:16;6.75;;;4.90;;
25581;SDS011;13462;50.764;4.332;2022-08-02T00:40:48;5.28;;;4.75;;
25581;SDS011;13462;50.764;4.332;2022-08-02T00:43:15;6.85;;;5.22;;
25581;SDS011;13462;50.764;4.332;2022-08-02T00:45:41;7.93;;;5.80;;
25581;SDS011;13462;50.764;4.332;2022-08-02T00:48:07;9.23;;;5.43;;
25581;SDS011;13462;50.764;4.332;2022-08-02T00:50:34;8.63;;;5.35;;
25581;SDS011;13462;50.764;4.332;2022-08-02T00:53:01;8.30;;;5.10;;
25581;SDS011;13462;50.764;4.332;2022-08-02T00:55:27;5.50;;;4.80;;
25581;SDS011;13462;50.764;4.332;2022-08-02T00:57:53;11.93;;;5.82;;
25581;SDS011;13462;50.764;4.332;2022-08-02T01:00:19;7.55;;;5.50;;
25581;SDS011;13462;50.764;4.332;2022-08-02T01:02:45;6.80;;;5.43;;
25581;SDS011;13462;50.764;4.332;2022-08-02T01:05:11;9.77;;;6.03;;
25581;SDS011;13462;50.764;4.332;2022-08-02T01:07:37;8.63;;;5.88;;
25581;SDS011;13462;50.764;4.332;2022-08-02T01:10:03;9.77;;;5.97;;
25581;SDS011;13462;50.764;4.332;2022-08-02T01:12:30;10.25;;;5.57;;
25581;SDS011;13462;50.764;4.332;2022-08-02T01:14:56;8.77;;;5.53;;
25581;SDS011;13462;50.764;4.332;2022-08-02T01:17:31;8.73;;;5.80;;
25581;SDS011;13462;50.764;4.332;2022-08-02T01:20:11;8.18;;;5.22;;
25581;SDS011;13462;50.764;4.332;2022-08-02T01:28:37;7.97;;;5.80;;
25581;SDS011;13462;50.764;4.332;2022-08-02T01:34:03;7.95;;;5.35;;
25581;SDS011;13462;50.764;4.332;2022-08-02T01:36:31;10.65;;;6.05;;
25581;SDS011;13462;50.764;4.332;2022-08-02T01:39:08;6.00;;;5.32;;
25581;SDS011;13462;50.764;4.332;2022-08-02T01:41:39;6.97;;;5.20;;
25581;SDS011;13462;50.764;4.332;2022-08-02T01:44:06;8.45;;;5.65;;
25581;SDS011;13462;50.764;4.332;2022-08-02T01:46:34;8.52;;;5.70;;
25581;SDS011;13462;50.764;4.332;2022-08-02T01:49:04;11.00;;;6.20;;
25581;SDS011;13462;50.764;4.332;2022-08-02T01:51:34;6.75;;;5.35;;
25581;SDS011;13462;50.764;4.332;2022-08-02T01:54:20;8.05;;;5.82;;
25581;SDS011;13462;50.764;4.332;2022-08-02T01:56:48;10.52;;;5.95;;
25581;SDS011;13462;50.764;4.332;2022-08-02T01:59:16;11.15;;;6.55;;
25581;SDS011;13462;50.764;4.332;2022-08-02T02:01:44;9.43;;;6.43;;
25581;SDS011;13462;50.764;4.332;2022-08-02T02:04:13;6.75;;;5.70;;
25581;SDS011;13462;50.764;4.332;2022-08-02T02:06:40;7.75;;;5.45;;
25581;SDS011;13462;50.764;4.332;2022-08-02T02:09:08;9.95;;;5.90;;
25581;SDS011;13462;50.764;4.332;2022-08-02T02:11:36;6.65;;;6.05;;
25581;SDS011;13462;50.764;4.332;2022-08-02T02:14:03;8.60;;;5.90;;
25581;SDS011;13462;50.764;4.332;2022-08-02T02:16:32;7.10;;;6.40;;
25581;SDS011;13462;50.764;4.332;2022-08-02T02:18:59;6.55;;;5.93;;
25581;SDS011;13462;50.764;4.332;2022-08-02T02:21:26;8.68;;;6.55;;
25581;SDS011;13462;50.764;4.332;2022-08-02T02:23:52;7.93;;;6.35;;
25581;SDS011;13462;50.764;4.332;2022-08-02T02:26:18;10.40;;;6.45;;
25581;SDS011;13462;50.764;4.332;2022-08-02T02:28:45;9.20;;;7.43;;
25581;SDS011;13462;50.764;4.332;2022-08-02T02:31:12;9.38;;;7.05;;
25581;SDS011;13462;50.764;4.332;2022-08-02T02:33:43;8.13;;;6.93;;
25581;SDS011;13462;50.764;4.332;2022-08-02T02:36:17;7.75;;;6.95;;
25581;SDS011;13462;50.764;4.332;2022-08-02T02:38:44;8.77;;;6.97;;
25581;SDS011;13462;50.764;4.332;2022-08-02T02:41:11;9.52;;;8.27;;
25581;SDS011;13462;50.764;4.332;2022-08-02T02:43:37;10.70;;;9.15;;
25581;SDS011;13462;50.764;4.332;2022-08-02T02:46:05;11.15;;;8.57;;
25581;SDS011;13462;50.764;4.332;2022-08-02T02:48:33;8.70;;;7.63;;
25581;SDS011;13462;50.764;4.332;2022-08-02T02:51:00;12.05;;;8.80;;
25581;SDS011;13462;50.764;4.332;2022-08-02T02:53:28;10.20;;;8.15;;
25581;SDS011;13462;50.764;4.332;2022-08-02T02:55:55;10.18;;;8.27;;
25581;SDS011;13462;50.764;4.332;2022-08-02T02:58:21;10.80;;;7.70;;
25581;SDS011;13462;50.764;4.332;2022-08-02T03:00:48;8.75;;;7.85;;
25581;SDS011;13462;50.764;4.332;2022-08-02T03:03:33;10.65;;;8.48;;
25581;SDS011;13462;50.764;4.332;2022-08-02T03:05:59;13.68;;;8.73;;
25581;SDS011;13462;50.764;4.332;2022-08-02T03:08:25;10.68;;;7.82;;
25581;SDS011;13462;50.764;4.332;2022-08-02T03:10:50;8.85;;;7.57;;
25581;SDS011;13462;50.764;4.332;2022-08-02T03:13:16;11.57;;;8.73;;
25581;SDS011;13462;50.764;4.332;2022-08-02T03:15:43;12.85;;;7.88;;
25581;SDS011;13462;50.764;4.332;2022-08-02T03:18:28;13.77;;;8.27;;
25581;SDS011;13462;50.764;4.332;2022-08-02T03:21:03;9.68;;;7.70;;
25581;SDS011;13462;50.764;4.332;2022-08-02T03:23:31;11.20;;;8.15;;
25581;SDS011;13462;50.764;4.332;2022-08-02T03:25:57;10.50;;;8.25;;
25581;SDS011;13462;50.764;4.332;2022-08-02T03:28:23;15.00;;;9.13;;
25581;SDS011;13462;50.764;4.332;2022-08-02T03:30:49;13.88;;;8.93;;
25581;SDS011;13462;50.764;4.332;2022-08-02T03:33:15;11.02;;;8.70;;
25581;SDS011;13462;50.764;4.332;2022-08-02T03:35:42;9.07;;;8.10;;
25581;SDS011;13462;50.764;4.332;2022-08-02T03:38:10;10.82;;;9.07;;
25581;SDS011;13462;50.764;4.332;2022-08-02T03:40:38;12.05;;;8.35;;
25581;SDS011;13462;50.764;4.332;2022-08-02T03:43:05;12.18;;;8.82;;
25581;SDS011;13462;50.764;4.332;2022-08-02T03:45:33;11.52;;;8.60;;
25581;SDS011;13462;50.764;4.332;2022-08-02T03:48:00;13.27;;;9.45;;
25581;SDS011;13462;50.764;4.332;2022-08-02T03:50:27;12.20;;;8.05;;
25581;SDS011;13462;50.764;4.332;2022-08-02T03:52:53;14.52;;;9.35;;
25581;SDS011;13462;50.764;4.332;2022-08-02T03:55:18;11.35;;;9.23;;
25581;SDS011;13462;50.764;4.332;2022-08-02T03:57:44;14.10;;;9.70;;
25581;SDS011;13462;50.764;4.332;2022-08-02T04:00:11;14.15;;;9.07;;
25581;SDS011;13462;50.764;4.332;2022-08-02T04:02:41;14.18;;;8.85;;
25581;SDS011;13462;50.764;4.332;2022-08-02T04:05:07;15.82;;;9.65;;
25581;SDS011;13462;50.764;4.332;2022-08-02T04:07:33;15.95;;;8.95;;
25581;SDS011;13462;50.764;4.332;2022-08-02T04:09:58;13.05;;;8.40;;
25581;SDS011;13462;50.764;4.332;2022-08-02T04:12:24;12.65;;;8.90;;
25581;SDS011;13462;50.764;4.332;2022-08-02T04:14:49;12.65;;;8.93;;
25581;SDS011;13462;50.764;4.332;2022-08-02T04:17:15;18.08;;;10.38;;
25581;SDS011;13462;50.764;4.332;2022-08-02T04:19:45;14.18;;;10.32;;
25581;SDS011;13462;50.764;4.332;2022-08-02T04:22:18;18.17;;;9.75;;
25581;SDS011;13462;50.764;4.332;2022-08-02T04:25:06;12.90;;;9.88;;
25581;SDS011;13462;50.764;4.332;2022-08-02T04:27:33;13.13;;;9.48;;
25581;SDS011;13462;50.764;4.332;2022-08-02T04:30:01;13.98;;;10.27;;
25581;SDS011;13462;50.764;4.332;2022-08-02T04:32:27;13.90;;;11.00;;
25581;SDS011;13462;50.764;4.332;2022-08-02T04:34:55;15.02;;;9.70;;
25581;SDS011;13462;50.764;4.332;2022-08-02T04:37:21;12.57;;;10.02;;
25581;SDS011;13462;50.764;4.332;2022-08-02T04:39:47;17.65;;;9.95;;
25581;SDS011;13462;50.764;4.332;2022-08-02T04:42:20;11.85;;;9.05;;
25581;SDS011;13462;50.764;4.332;2022-08-02T04:44:46;10.38;;;8.90;;
25581;SDS011;13462;50.764;4.332;2022-08-02T04:47:12;12.25;;;9.75;;
25581;SDS011;13462;50.764;4.332;2022-08-02T04:49:37;15.43;;;9.63;;
25581;SDS011;13462;50.764;4.332;2022-08-02T04:52:03;13.93;;;9.55;;
25581;SDS011;13462;50.764;4.332;2022-08-02T04:54:29;13.02;;;9.48;;
25581;SDS011;13462;50.764;4.332;2022-08-02T04:56:54;13.93;;;9.15;;
25581;SDS011;13462;50.764;4.332;2022-08-02T04:59:20;15.45;;;9.35;;
25581;SDS011;13462;50.764;4.332;2022-08-02T05:01:46;12.88;;;8.98;;
25581;SDS011;13462;50.764;4.332;2022-08-02T05:04:12;14.23;;;10.00;;
25581;SDS011;13462;50.764;4.332;2022-08-02T05:06:37;11.85;;;9.40;;
25581;SDS011;13462;50.764;4.332;2022-08-02T05:09:03;12.50;;;9.57;;
25581;SDS011;13462;50.764;4.332;2022-08-02T05:11:29;14.48;;;9.73;;
25581;SDS011;13462;50.764;4.332;2022-08-02T05:13:55;14.88;;;10.15;;
25581;SDS011;13462;50.764;4.332;2022-08-02T05:16:20;14.10;;;9.82;;
25581;SDS011;13462;50.764;4.332;2022-08-02T05:18:46;16.75;;;10.57;;
25581;SDS011;13462;50.764;4.332;2022-08-02T05:21:12;13.18;;;10.32;;
25581;SDS011;13462;50.764;4.332;2022-08-02T05:23:37;15.50;;;10.15;;
25581;SDS011;13462;50.764;4.332;2022-08-02T05:26:03;17.25;;;10.07;;
25581;SDS011;13462;50.764;4.332;2022-08-02T05:28:29;15.70;;;11.32;;
25581;SDS011;13462;50.764;4.332;2022-08-02T05:30:55;15.45;;;10.82;;
25581;SDS011;13462;50.764;4.332;2022-08-02T05:33:20;14.40;;;10.43;;
25581;SDS011;13462;50.764;4.332;2022-08-02T05:35:46;15.27;;;10.57;;
25581;SDS011;13462;50.764;4.332;2022-08-02T05:38:11;14.52;;;10.63;;
25581;SDS011;13462;50.764;4.332;2022-08-02T05:40:37;13.15;;;10.68;;
25581;SDS011;13462;50.764;4.332;2022-08-02T05:43:09;16.45;;;11.65;;
25581;SDS011;13462;50.764;4.332;2022-08-02T05:45:39;15.00;;;10.63;;
25581;SDS011;13462;50.764;4.332;2022-08-02T05:48:05;21.08;;;12.75;;
25581;SDS011;13462;50.764;4.332;2022-08-02T05:50:31;16.95;;;11.82;;
25581;SDS011;13462;50.764;4.332;2022-08-02T05:53:02;16.55;;;12.02;;
25581;SDS011;13462;50.764;4.332;2022-08-02T05:55:39;16.88;;;11.35;;
25581;SDS011;13462;50.764;4.332;2022-08-02T06:01:02;14.88;;;10.55;;
25581;SDS011;13462;50.764;4.332;2022-08-02T06:03:37;18.20;;;10.25;;
25581;SDS011;13462;50.764;4.332;2022-08-02T06:06:11;16.80;;;11.07;;
25581;SDS011;13462;50.764;4.332;2022-08-02T06:08:40;12.43;;;9.60;;
25581;SDS011;13462;50.764;4.332;2022-08-02T06:11:08;13.70;;;9.15;;
25581;SDS011;13462;50.764;4.332;2022-08-02T06:13:38;11.13;;;8.38;;
25581;SDS011;13462;50.764;4.332;2022-08-02T06:16:05;12.68;;;8.18;;
25581;SDS011;13462;50.764;4.332;2022-08-02T06:18:32;11.52;;;7.47;;
25581;SDS011;13462;50.764;4.332;2022-08-02T06:21:02;10.05;;;7.50;;
25581;SDS011;13462;50.764;4.332;2022-08-02T06:23:30;8.70;;;7.15;;
25581;SDS011;13462;50.764;4.332;2022-08-02T06:25:56;8.40;;;6.45;;
25581;SDS011;13462;50.764;4.332;2022-08-02T06:28:23;8.32;;;6.10;;
25581;SDS011;13462;50.764;4.332;2022-08-02T06:30:50;12.75;;;6.25;;
25581;SDS011;13462;50.764;4.332;2022-08-02T06:33:17;8.63;;;5.60;;
25581;SDS011;13462;50.764;4.332;2022-08-02T06:38:31;10.40;;;5.28;;
25581;SDS011;13462;50.764;4.332;2022-08-02T06:41:03;8.77;;;4.82;;
25581;SDS011;13462;50.764;4.332;2022-08-02T06:46:29;8.88;;;5.10;;
25581;SDS011;13462;50.764;4.332;2022-08-02T06:48:55;8.40;;;4.80;;
25581;SDS011;13462;50.764;4.332;2022-08-02T06:51:21;5.75;;;4.75;;
25581;SDS011;13462;50.764;4.332;2022-08-02T06:53:47;10.38;;;5.82;;
25581;SDS011;13462;50.764;4.332;2022-08-02T06:56:13;7.97;;;4.40;;
25581;SDS011;13462;50.764;4.332;2022-08-02T06:58:39;9.20;;;4.85;;
25581;SDS011;13462;50.764;4.332;2022-08-02T07:01:05;9.23;;;4.65;;
25581;SDS011;13462;50.764;4.332;2022-08-02T07:03:34;6.15;;;4.90;;
25581;SDS011;13462;50.764;4.332;2022-08-02T07:06:01;10.23;;;5.03;;
25581;SDS011;13462;50.764;4.332;2022-08-02T07:08:27;9.18;;;4.28;;
25581;SDS011;13462;50.764;4.332;2022-08-02T07:11:00;6.95;;;5.03;;
25581;SDS011;13462;50.764;4.332;2022-08-02T07:13:27;7.63;;;4.93;;
25581;SDS011;13462;50.764;4.332;2022-08-02T07:15:53;10.50;;;4.90;;
25581;SDS011;13462;50.764;4.332;2022-08-02T07:18:19;10.65;;;4.53;;
25581;SDS011;13462;50.764;4.332;2022-08-02T07:20:45;7.75;;;4.40;;
25581;SDS011;13462;50.764;4.332;2022-08-02T07:23:11;6.85;;;4.05;;
25581;SDS011;13462;50.764;4.332;2022-08-02T07:25:37;7.28;;;3.72;;
25581;SDS011;13462;50.764;4.332;2022-08-02T07:28:04;8.32;;;4.30;;
25581;SDS011;13462;50.764;4.332;2022-08-02T07:30:30;7.60;;;4.22;;
25581;SDS011;13462;50.764;4.332;2022-08-02T07:32:57;11.82;;;4.18;;
25581;SDS011;13462;50.764;4.332;2022-08-02T07:35:23;7.68;;;4.00;;
25581;SDS011;13462;50.764;4.332;2022-08-02T07:37:50;7.07;;;4.38;;
25581;SDS011;13462;50.764;4.332;2022-08-02T07:40:15;5.13;;;3.70;;
25581;SDS011;13462;50.764;4.332;2022-08-02T07:42:42;4.90;;;3.90;;
25581;SDS011;13462;50.764;4.332;2022-08-02T07:45:08;7.40;;;4.43;;
25581;SDS011;13462;50.764;4.332;2022-08-02T07:47:35;5.68;;;3.53;;
25581;SDS011;13462;50.764;4.332;2022-08-02T07:50:02;9.98;;;3.88;;
25581;SDS011;13462;50.764;4.332;2022-08-02T07:52:29;9.07;;;2.90;;
25581;SDS011;13462;50.764;4.332;2022-08-02T07:54:54;4.60;;;3.60;;
25581;SDS011;13462;50.764;4.332;2022-08-02T07:57:20;6.15;;;3.22;;
25581;SDS011;13462;50.764;4.332;2022-08-02T07:59:45;8.70;;;3.47;;
25581;SDS011;13462;50.764;4.332;2022-08-02T08:02:12;7.55;;;2.88;;
25581;SDS011;13462;50.764;4.332;2022-08-02T08:04:39;3.50;;;2.53;;
25581;SDS011;13462;50.764;4.332;2022-08-02T08:07:05;5.10;;;2.83;;
25581;SDS011;13462;50.764;4.332;2022-08-02T08:09:34;4.10;;;2.70;;
25581;SDS011;13462;50.764;4.332;2022-08-02T08:12:04;3.88;;;2.70;;
25581;SDS011;13462;50.764;4.332;2022-08-02T08:14:30;3.50;;;3.00;;
25581;SDS011;13462;50.764;4.332;2022-08-02T08:16:56;5.57;;;2.88;;
25581;SDS011;13462;50.764;4.332;2022-08-02T08:19:21;5.13;;;3.03;;
25581;SDS011;13462;50.764;4.332;2022-08-02T08:21:47;10.35;;;3.03;;
25581;SDS011;13462;50.764;4.332;2022-08-02T08:24:12;5.65;;;3.13;;
25581;SDS011;13462;50.764;4.332;2022-08-02T08:26:38;5.72;;;2.83;;
25581;SDS011;13462;50.764;4.332;2022-08-02T08:29:04;6.53;;;3.30;;
25581;SDS011;13462;50.764;4.332;2022-08-02T08:31:31;8.27;;;3.33;;
25581;SDS011;13462;50.764;4.332;2022-08-02T08:33:59;7.80;;;2.95;;
25581;SDS011;13462;50.764;4.332;2022-08-02T08:36:26;8.70;;;3.17;;
25581;SDS011;13462;50.764;4.332;2022-08-02T08:38:51;5.45;;;3.00;;
25581;SDS011;13462;50.764;4.332;2022-08-02T08:41:17;12.15;;;3.78;;
25581;SDS011;13462;50.764;4.332;2022-08-02T08:43:44;5.93;;;3.72;;
25581;SDS011;13462;50.764;4.332;2022-08-02T08:46:11;4.28;;;2.80;;
25581;SDS011;13462;50.764;4.332;2022-08-02T08:48:51;8.05;;;3.17;;
25581;SDS011;13462;50.764;4.332;2022-08-02T08:51:21;8.88;;;3.75;;
25581;SDS011;13462;50.764;4.332;2022-08-02T08:53:48;5.53;;;2.88;;
25581;SDS011;13462;50.764;4.332;2022-08-02T08:56:18;5.20;;;2.45;;
25581;SDS011;13462;50.764;4.332;2022-08-02T08:58:44;6.97;;;3.17;;
25581;SDS011;13462;50.764;4.332;2022-08-02T09:01:13;9.00;;;2.80;;
25581;SDS011;13462;50.764;4.332;2022-08-02T09:03:40;3.70;;;2.60;;
25581;SDS011;13462;50.764;4.332;2022-08-02T09:06:07;6.10;;;2.42;;
25581;SDS011;13462;50.764;4.332;2022-08-02T09:08:33;4.22;;;2.47;;
25581;SDS011;13462;50.764;4.332;2022-08-02T09:10:58;5.75;;;2.75;;
25581;SDS011;13462;50.764;4.332;2022-08-02T09:13:26;6.78;;;2.72;;
25581;SDS011;13462;50.764;4.332;2022-08-02T09:18:31;5.25;;;2.58;;
25581;SDS011;13462;50.764;4.332;2022-08-02T09:20:58;4.30;;;2.28;;
25581;SDS011;13462;50.764;4.332;2022-08-02T09:23:32;3.92;;;2.63;;
25581;SDS011;13462;50.764;4.332;2022-08-02T09:26:06;4.50;;;2.50;;
25581;SDS011;13462;50.764;4.332;2022-08-02T09:28:34;4.78;;;2.22;;
25581;SDS011;13462;50.764;4.332;2022-08-02T09:31:02;6.18;;;2.60;;
25581;SDS011;13462;50.764;4.332;2022-08-02T09:33:30;2.55;;;2.25;;
25581;SDS011;13462;50.764;4.332;2022-08-02T09:35:59;6.93;;;2.58;;
25581;SDS011;13462;50.764;4.332;2022-08-02T09:38:26;5.72;;;2.40;;
25581;SDS011;13462;50.764;4.332;2022-08-02T09:40:51;5.07;;;2.45;;
25581;SDS011;13462;50.764;4.332;2022-08-02T09:43:17;3.25;;;2.15;;
25581;SDS011;13462;50.764;4.332;2022-08-02T09:45:44;6.80;;;2.97;;
25581;SDS011;13462;50.764;4.332;2022-08-02T09:48:10;4.15;;;2.25;;
25581;SDS011;13462;50.764;4.332;2022-08-02T09:50:36;5.75;;;2.92;;
25581;SDS011;13462;50.764;4.332;2022-08-02T09:53:05;4.20;;;2.40;;
25581;SDS011;13462;50.764;4.332;2022-08-02T09:55:36;4.65;;;2.38;;
25581;SDS011;13462;50.764;4.332;2022-08-02T09:58:15;3.05;;;2.45;;
25581;SDS011;13462;50.764;4.332;2022-08-02T10:00:55;2.17;;;1.88;;
25581;SDS011;13462;50.764;4.332;2022-08-02T10:03:22;5.03;;;2.53;;
25581;SDS011;13462;50.764;4.332;2022-08-02T10:05:52;6.15;;;2.50;;
25581;SDS011;13462;50.764;4.332;2022-08-02T10:10:45;4.68;;;2.75;;
25581;SDS011;13462;50.764;4.332;2022-08-02T10:13:11;2.90;;;2.10;;
25581;SDS011;13462;50.764;4.332;2022-08-02T10:15:38;5.70;;;2.17;;
25581;SDS011;13462;50.764;4.332;2022-08-02T10:18:04;8.23;;;2.28;;
25581;SDS011;13462;50.764;4.332;2022-08-02T10:20:32;4.43;;;1.80;;
25581;SDS011;13462;50.764;4.332;2022-08-02T10:23:07;4.47;;;2.15;;
25581;SDS011;13462;50.764;4.332;2022-08-02T10:25:35;3.72;;;2.00;;
25581;SDS011;13462;50.764;4.332;2022-08-02T10:28:02;4.45;;;1.90;;
25581;SDS011;13462;50.764;4.332;2022-08-02T10:30:30;2.20;;;1.70;;
25581;SDS011;13462;50.764;4.332;2022-08-02T10:32:57;4.10;;;1.63;;
25581;SDS011;13462;50.764;4.332;2022-08-02T10:35:25;5.93;;;1.95;;
25581;SDS011;13462;50.764;4.332;2022-08-02T10:37:55;3.90;;;1.88;;
25581;SDS011;13462;50.764;4.332;2022-08-02T10:40:25;2.17;;;1.98;;
25581;SDS011;13462;50.764;4.332;2022-08-02T10:43:12;3.80;;;2.00;;
25581;SDS011;13462;50.764;4.332;2022-08-02T10:49:00;2.80;;;1.65;;
25581;SDS011;13462;50.764;4.332;2022-08-02T10:54:19;5.10;;;2.10;;
25581;SDS011;13462;50.764;4.332;2022-08-02T10:56:46;15.18;;;2.33;;
25581;SDS011;13462;50.764;4.332;2022-08-02T11:01:51;2.22;;;1.70;;
25581;SDS011;13462;50.764;4.332;2022-08-02T11:04:21;3.47;;;2.05;;
25581;SDS011;13462;50.764;4.332;2022-08-02T11:09:38;3.35;;;2.10;;
25581;SDS011;13462;50.764;4.332;2022-08-02T11:12:09;1.92;;;1.70;;
25581;SDS011;13462;50.764;4.332;2022-08-02T11:14:37;2.88;;;1.52;;
25581;SDS011;13462;50.764;4.332;2022-08-02T11:17:13;2.10;;;1.90;;
25581;SDS011;13462;50.764;4.332;2022-08-02T11:22:40;2.22;;;1.98;;
25581;SDS011;13462;50.764;4.332;2022-08-02T11:27:51;4.07;;;2.03;;
25581;SDS011;13462;50.764;4.332;2022-08-02T11:30:19;3.30;;;1.70;;
25581;SDS011;13462;50.764;4.332;2022-08-02T11:32:46;3.45;;;1.90;;
25581;SDS011;13462;50.764;4.332;2022-08-02T11:35:12;2.55;;;1.50;;
25581;SDS011;13462;50.764;4.332;2022-08-02T11:37:39;3.10;;;1.73;;
25581;SDS011;13462;50.764;4.332;2022-08-02T11:40:07;7.05;;;1.80;;
25581;SDS011;13462;50.764;4.332;2022-08-02T11:42:38;4.05;;;1.88;;
25581;SDS011;13462;50.764;4.332;2022-08-02T11:45:06;3.40;;;1.90;;
25581;SDS011;13462;50.764;4.332;2022-08-02T11:47:43;3.85;;;1.90;;
25581;SDS011;13462;50.764;4.332;2022-08-02T11:50:14;5.00;;;1.80;;
25581;SDS011;13462;50.764;4.332;2022-08-02T11:52:41;3.33;;;2.00;;
25581;SDS011;13462;50.764;4.332;2022-08-02T11:55:08;4.97;;;1.70;;
25581;SDS011;13462;50.764;4.332;2022-08-02T11:57:34;9.82;;;2.72;;
25581;SDS011;13462;50.764;4.332;2022-08-02T12:00:01;5.55;;;2.00;;
25581;SDS011;13462;50.764;4.332;2022-08-02T12:02:28;4.30;;;1.90;;
25581;SDS011;13462;50.764;4.332;2022-08-02T12:05:05;2.03;;;1.75;;
25581;SDS011;13462;50.764;4.332;2022-08-02T12:07:33;2.70;;;1.83;;
25581;SDS011;13462;50.764;4.332;2022-08-02T12:10:02;3.42;;;2.10;;
25581;SDS011;13462;50.764;4.332;2022-08-02T12:12:31;4.13;;;1.83;;
25581;SDS011;13462;50.764;4.332;2022-08-02T12:14:56;1.88;;;1.60;;
25581;SDS011;13462;50.764;4.332;2022-08-02T12:17:22;3.92;;;1.70;;
25581;SDS011;13462;50.764;4.332;2022-08-02T12:20:10;5.68;;;2.70;;
25581;SDS011;13462;50.764;4.332;2022-08-02T12:22:37;4.60;;;2.30;;
25581;SDS011;13462;50.764;4.332;2022-08-02T12:25:17;7.57;;;2.45;;
25581;SDS011;13462;50.764;4.332;2022-08-02T12:27:44;2.45;;;2.00;;
25581;SDS011;13462;50.764;4.332;2022-08-02T12:30:13;6.63;;;2.13;;
25581;SDS011;13462;50.764;4.332;2022-08-02T12:32:41;2.80;;;1.65;;
25581;SDS011;13462;50.764;4.332;2022-08-02T12:35:08;1.65;;;1.45;;
25581;SDS011;13462;50.764;4.332;2022-08-02T12:37:43;4.28;;;2.05;;
25581;SDS011;13462;50.764;4.332;2022-08-02T12:40:25;3.72;;;1.90;;
25581;SDS011;13462;50.764;4.332;2022-08-02T12:42:57;3.40;;;1.70;;
25581;SDS011;13462;50.764;4.332;2022-08-02T12:45:29;5.43;;;2.05;;
25581;SDS011;13462;50.764;4.332;2022-08-02T12:48:28;5.80;;;1.95;;
25581;SDS011;13462;50.764;4.332;2022-08-02T12:50:55;3.38;;;1.50;;
25581;SDS011;13462;50.764;4.332;2022-08-02T12:53:20;3.50;;;1.70;;
25581;SDS011;13462;50.764;4.332;2022-08-02T12:55:55;3.63;;;1.63;;
25581;SDS011;13462;50.764;4.332;2022-08-02T12:58:22;1.58;;;1.48;;
25581;SDS011;13462;50.764;4.332;2022-08-02T13:00:55;3.38;;;1.88;;
25581;SDS011;13462;50.764;4.332;2022-08-02T13:03:22;4.78;;;1.70;;
25581;SDS011;13462;50.764;4.332;2022-08-02T13:05:48;2.40;;;1.80;;
25581;SDS011;13462;50.764;4.332;2022-08-02T13:08:14;2.47;;;1.67;;
25581;SDS011;13462;50.764;4.332;2022-08-02T13:10:40;3.85;;;1.33;;
25581;SDS011;13462;50.764;4.332;2022-08-02T13:13:06;2.85;;;1.80;;
25581;SDS011;13462;50.764;4.332;2022-08-02T13:15:32;2.88;;;1.50;;
25581;SDS011;13462;50.764;4.332;2022-08-02T13:17:57;3.85;;;1.67;;
25581;SDS011;13462;50.764;4.332;2022-08-02T13:20:25;2.80;;;1.65;;
25581;SDS011;13462;50.764;4.332;2022-08-02T13:22:51;5.15;;;1.73;;
25581;SDS011;13462;50.764;4.332;2022-08-02T13:25:17;2.15;;;1.45;;
25581;SDS011;13462;50.764;4.332;2022-08-02T13:27:46;1.58;;;1.45;;
25581;SDS011;13462;50.764;4.332;2022-08-02T13:30:12;2.35;;;1.50;;
25581;SDS011;13462;50.764;4.332;2022-08-02T13:32:38;5.78;;;1.63;;
25581;SDS011;13462;50.764;4.332;2022-08-02T13:35:04;2.13;;;1.58;;
25581;SDS011;13462;50.764;4.332;2022-08-02T13:37:29;2.38;;;1.40;;
25581;SDS011;13462;50.764;4.332;2022-08-02T13:39:55;3.83;;;1.67;;
25581;SDS011;13462;50.764;4.332;2022-08-02T13:42:21;2.53;;;1.70;;
25581;SDS011;13462;50.764;4.332;2022-08-02T13:44:47;1.50;;;1.30;;
25581;SDS011;13462;50.764;4.332;2022-08-02T13:47:12;2.65;;;1.40;;
25581;SDS011;13462;50.764;4.332;2022-08-02T13:49:38;1.52;;;1.42;;
25581;SDS011;13462;50.764;4.332;2022-08-02T13:52:05;6.45;;;1.48;;
25581;SDS011;13462;50.764;4.332;2022-08-02T13:54:31;1.83;;;1.70;;
25581;SDS011;13462;50.764;4.332;2022-08-02T13:56:57;3.78;;;1.58;;
25581;SDS011;13462;50.764;4.332;2022-08-02T13:59:24;1.88;;;1.63;;
25581;SDS011;13462;50.764;4.332;2022-08-02T14:01:50;7.20;;;1.90;;
25581;SDS011;13462;50.764;4.332;2022-08-02T14:04:17;3.78;;;1.38;;
25581;SDS011;13462;50.764;4.332;2022-08-02T14:06:42;5.20;;;1.92;;
25581;SDS011;13462;50.764;4.332;2022-08-02T14:09:08;2.25;;;1.50;;
25581;SDS011;13462;50.764;4.332;2022-08-02T14:11:33;2.83;;;1.20;;
25581;SDS011;13462;50.764;4.332;2022-08-02T14:13:59;1.92;;;1.30;;
25581;SDS011;13462;50.764;4.332;2022-08-02T14:16:24;2.00;;;1.60;;
25581;SDS011;13462;50.764;4.332;2022-08-02T14:18:50;2.65;;;1.50;;
25581;SDS011;13462;50.764;4.332;2022-08-02T14:21:16;5.63;;;1.48;;
25581;SDS011;13462;50.764;4.332;2022-08-02T14:23:41;1.52;;;1.42;;
25581;SDS011;13462;50.764;4.332;2022-08-02T14:26:07;3.67;;;1.42;;
25581;SDS011;13462;50.764;4.332;2022-08-02T14:28:34;4.10;;;1.48;;
25581;SDS011;13462;50.764;4.332;2022-08-02T14:31:00;4.88;;;1.30;;
25581;SDS011;13462;50.764;4.332;2022-08-02T14:33:26;3.45;;;1.88;;
25581;SDS011;13462;50.764;4.332;2022-08-02T14:35:51;3.67;;;1.38;;
25581;SDS011;13462;50.764;4.332;2022-08-02T14:38:17;4.40;;;1.50;;
25581;SDS011;13462;50.764;4.332;2022-08-02T14:40:43;4.05;;;1.55;;
25581;SDS011;13462;50.764;4.332;2022-08-02T14:43:09;2.97;;;1.48;;
25581;SDS011;13462;50.764;4.332;2022-08-02T14:45:35;2.60;;;1.55;;
25581;SDS011;13462;50.764;4.332;2022-08-02T14:48:01;4.35;;;1.88;;
25581;SDS011;13462;50.764;4.332;2022-08-02T14:50:26;3.53;;;1.65;;
25581;SDS011;13462;50.764;4.332;2022-08-02T14:52:52;1.50;;;1.38;;
25581;SDS011;13462;50.764;4.332;2022-08-02T14:55:17;3.20;;;1.45;;
25581;SDS011;13462;50.764;4.332;2022-08-02T14:57:43;3.78;;;1.65;;
25581;SDS011;13462;50.764;4.332;2022-08-02T15:00:09;2.97;;;1.30;;
25581;SDS011;13462;50.764;4.332;2022-08-02T15:02:35;3.85;;;1.50;;
25581;SDS011;13462;50.764;4.332;2022-08-02T15:05:01;5.25;;;1.63;;
25581;SDS011;13462;50.764;4.332;2022-08-02T15:07:27;2.60;;;1.17;;
25581;SDS011;13462;50.764;4.332;2022-08-02T15:09:52;1.85;;;1.40;;
25581;SDS011;13462;50.764;4.332;2022-08-02T15:12:18;3.97;;;1.77;;
25581;SDS011;13462;50.764;4.332;2022-08-02T15:14:44;4.63;;;1.50;;
25581;SDS011;13462;50.764;4.332;2022-08-02T15:17:10;4.38;;;1.48;;
25581;SDS011;13462;50.764;4.332;2022-08-02T15:19:35;2.08;;;1.40;;
25581;SDS011;13462;50.764;4.332;2022-08-02T15:22:01;3.45;;;1.67;;
25581;SDS011;13462;50.764;4.332;2022-08-02T15:24:27;4.13;;;1.60;;
25581;SDS011;13462;50.764;4.332;2022-08-02T15:26:52;3.47;;;1.40;;